createdAt,value
2022-11-21T00:00:23.425Z,10.97
2022-11-21T00:02:51.956Z,13.73
2022-11-21T00:05:20.525Z,12.80
2022-11-21T00:07:49.871Z,14.23
2022-11-21T00:10:18.597Z,13.80
2022-11-21T00:12:48.580Z,13.03
2022-11-21T00:15:17.038Z,14.70
2022-11-21T00:17:45.525Z,15.63
2022-11-21T00:20:14.017Z,24.00
2022-11-21T00:22:42.501Z,23.13
2022-11-21T00:25:11.229Z,19.90
2022-11-21T00:27:39.744Z,22.97
2022-11-21T00:30:12.510Z,23.47
2022-11-21T00:32:41.143Z,19.33
2022-11-21T00:35:10.084Z,18.53
2022-11-21T00:37:38.473Z,19.17
2022-11-21T00:40:08.239Z,24.37
2022-11-21T00:42:36.636Z,24.33
2022-11-21T00:45:05.605Z,18.07
2022-11-21T00:47:35.391Z,19.03
2022-11-21T00:50:03.805Z,15.13
2022-11-21T00:52:32.183Z,17.63
2022-11-21T00:55:00.560Z,17.20
2022-11-21T00:57:28.878Z,16.20
2022-11-21T00:59:57.225Z,14.27
2022-11-21T01:02:25.672Z,19.73
2022-11-21T01:04:55.391Z,19.20
2022-11-21T01:07:23.813Z,19.60
2022-11-21T01:09:52.127Z,16.77
2022-11-21T01:12:20.586Z,17.80
2022-11-21T01:14:49.215Z,19.50
2022-11-21T01:17:17.716Z,27.23
2022-11-21T01:19:46.184Z,25.20
2022-11-21T01:22:15.904Z,21.40
2022-11-21T01:24:44.336Z,21.80
2022-11-21T01:27:12.762Z,23.10
2022-11-21T01:29:41.183Z,21.30
2022-11-21T01:32:09.562Z,17.10
2022-11-21T01:34:37.872Z,23.90
2022-11-21T01:37:06.215Z,14.93
2022-11-21T01:39:36.049Z,12.97
2022-11-21T01:42:04.568Z,12.90
2022-11-21T01:44:49.876Z,15.37
2022-11-21T01:47:18.603Z,18.20
2022-11-21T01:49:48.191Z,16.87
2022-11-21T01:52:20.777Z,26.70
2022-11-21T01:54:54.016Z,28.03
2022-11-21T01:57:25.254Z,29.70
2022-11-21T01:59:59.827Z,36.70
2022-11-21T02:02:31.669Z,28.67
2022-11-21T02:05:01.746Z,28.63
2022-11-21T02:07:35.294Z,28.40
2022-11-21T02:10:07.020Z,26.87
2022-11-21T02:12:40.660Z,27.80
2022-11-21T02:15:10.002Z,30.60
2022-11-21T02:17:38.499Z,33.53
2022-11-21T02:20:09.163Z,28.77
2022-11-21T02:22:46.850Z,25.33
2022-11-21T02:25:20.546Z,22.07
2022-11-21T02:27:52.099Z,27.90
2022-11-21T02:30:20.776Z,35.70
2022-11-21T02:32:49.171Z,42.10
2022-11-21T02:35:19.969Z,43.20
2022-11-21T02:37:50.876Z,37.43
2022-11-21T02:40:25.489Z,50.47
2022-11-21T02:43:01.304Z,47.13
2022-11-21T02:45:34.428Z,43.73
2022-11-21T02:48:04.506Z,62.77
2022-11-21T02:50:34.510Z,54.47
2022-11-21T02:53:03.559Z,54.63
2022-11-21T02:55:33.444Z,43.93
2022-11-21T02:58:05.078Z,49.20
2022-11-21T03:00:35.122Z,47.53
2022-11-21T03:03:03.639Z,48.43
2022-11-21T03:05:32.466Z,41.77
2022-11-21T03:08:01.122Z,44.10
2022-11-21T03:10:29.546Z,35.73
2022-11-21T03:13:01.943Z,36.20
2022-11-21T03:15:32.534Z,37.90
2022-11-21T03:18:02.915Z,33.30
2022-11-21T03:20:31.836Z,34.70
2022-11-21T03:23:00.257Z,47.13
2022-11-21T03:25:28.860Z,46.23
2022-11-21T03:27:58.599Z,40.13
2022-11-21T03:30:28.019Z,36.93
2022-11-21T03:32:57.373Z,28.33
2022-11-21T03:35:26.430Z,30.10
2022-11-21T03:37:55.020Z,23.43
2022-11-21T03:40:23.504Z,23.27
2022-11-21T03:42:51.884Z,20.67
2022-11-21T03:45:21.680Z,23.00
2022-11-21T03:47:50.115Z,23.10
2022-11-21T03:50:21.007Z,22.53
2022-11-21T03:52:49.531Z,22.53
2022-11-21T03:55:17.871Z,21.73
2022-11-21T03:57:46.275Z,22.07
2022-11-21T04:00:15.970Z,26.13
2022-11-21T04:02:45.821Z,25.03
2022-11-21T04:05:14.307Z,19.97
2022-11-21T04:07:42.693Z,20.63
2022-11-21T04:10:11.728Z,23.90
2022-11-21T04:12:40.119Z,20.17
2022-11-21T04:15:13.337Z,24.47
2022-11-21T04:17:42.511Z,20.33
2022-11-21T04:20:13.131Z,19.53
2022-11-21T04:22:41.561Z,29.00
2022-11-21T04:25:10.219Z,22.70
2022-11-21T04:27:38.652Z,26.23
2022-11-21T04:30:08.114Z,19.73
2022-11-21T04:32:36.535Z,20.13
2022-11-21T04:35:05.448Z,16.20
2022-11-21T04:37:35.308Z,16.57
2022-11-21T04:40:03.811Z,19.47
2022-11-21T04:42:32.248Z,14.90
2022-11-21T04:45:00.621Z,14.90
2022-11-21T04:47:29.111Z,15.70
2022-11-21T04:49:57.404Z,17.67
2022-11-21T04:52:25.821Z,18.53
2022-11-21T04:54:55.550Z,13.07
2022-11-21T04:57:24.392Z,13.17
2022-11-21T04:59:52.770Z,15.37
2022-11-21T05:02:21.183Z,11.10
2022-11-21T05:04:49.637Z,12.20
2022-11-21T05:07:18.969Z,11.07
2022-11-21T05:09:47.564Z,13.60
2022-11-21T05:12:34.462Z,15.50
2022-11-21T05:15:02.983Z,16.20
2022-11-21T05:17:32.009Z,16.33
2022-11-21T05:20:00.316Z,31.30
2022-11-21T05:22:29.108Z,21.07
2022-11-21T05:24:57.788Z,17.87
2022-11-21T05:27:27.559Z,19.60
2022-11-21T05:29:55.919Z,21.30
2022-11-21T05:32:24.769Z,23.70
2022-11-21T05:34:53.197Z,21.80
2022-11-21T05:37:22.009Z,16.30
2022-11-21T05:39:50.395Z,24.77
2022-11-21T05:42:38.848Z,15.43
2022-11-21T05:45:09.300Z,18.60
2022-11-21T05:47:37.827Z,15.33
2022-11-21T05:50:07.099Z,16.87
2022-11-21T05:52:35.489Z,14.47
2022-11-21T05:55:04.004Z,12.70
2022-11-21T05:57:32.503Z,11.90
2022-11-21T06:00:00.989Z,14.07
2022-11-21T06:02:48.296Z,15.53
2022-11-21T06:05:16.961Z,14.10
2022-11-21T06:07:45.419Z,13.70
2022-11-21T06:10:13.802Z,12.70
2022-11-21T06:12:42.150Z,15.17
2022-11-21T06:15:11.382Z,15.00
2022-11-21T06:17:41.227Z,19.07
2022-11-21T06:20:11.371Z,10.73
2022-11-21T06:22:39.763Z,18.50
2022-11-21T06:25:08.604Z,16.47
2022-11-21T06:27:37.068Z,12.87
2022-11-21T06:30:05.921Z,13.80
2022-11-21T06:32:38.719Z,14.83
2022-11-21T06:35:09.156Z,13.43
2022-11-21T06:37:37.512Z,13.77
2022-11-21T06:40:06.976Z,12.57
2022-11-21T06:42:35.327Z,12.10
2022-11-21T06:45:03.911Z,11.30
2022-11-21T06:47:35.173Z,9.93
2022-11-21T06:50:03.698Z,16.43
2022-11-21T06:52:35.630Z,12.80
2022-11-21T06:55:04.053Z,14.23
2022-11-21T06:57:32.836Z,11.93
2022-11-21T07:00:01.221Z,12.70
2022-11-21T07:02:29.602Z,13.87
2022-11-21T07:04:58.036Z,10.17
2022-11-21T07:07:26.484Z,9.63
2022-11-21T07:09:56.372Z,11.20
2022-11-21T07:12:42.147Z,11.27
2022-11-21T07:15:12.039Z,7.80
2022-11-21T07:17:40.530Z,11.03
2022-11-21T07:20:09.999Z,9.67
2022-11-21T07:22:38.438Z,30.53
2022-11-21T07:25:08.785Z,9.63
2022-11-21T07:27:37.170Z,10.07
2022-11-21T07:30:06.056Z,8.07
2022-11-21T07:32:34.424Z,9.97
2022-11-21T07:35:02.806Z,15.27
2022-11-21T07:37:31.247Z,9.77
2022-11-21T07:39:59.644Z,7.53
2022-11-21T07:42:29.465Z,7.60
2022-11-21T07:44:58.188Z,9.83
2022-11-21T07:47:26.536Z,10.90
2022-11-21T07:49:54.992Z,14.37
2022-11-21T07:52:23.446Z,12.27
2022-11-21T07:54:51.864Z,14.83
2022-11-21T07:57:20.154Z,9.27
2022-11-21T07:59:49.845Z,7.83
2022-11-21T08:02:20.908Z,9.00
2022-11-21T08:04:49.286Z,10.57
2022-11-21T08:07:18.931Z,9.40
2022-11-21T08:09:47.803Z,8.13
2022-11-21T08:12:16.527Z,13.13
2022-11-21T08:14:44.886Z,10.77
2022-11-21T08:17:14.911Z,15.53
2022-11-21T08:19:43.358Z,10.23
2022-11-21T08:22:11.736Z,10.77
2022-11-21T08:24:40.104Z,11.00
2022-11-21T08:27:08.535Z,12.17
2022-11-21T08:29:36.895Z,10.57
2022-11-21T08:32:05.581Z,9.73
2022-11-21T08:34:35.482Z,9.90
2022-11-21T08:37:04.013Z,10.77
2022-11-21T08:39:32.679Z,17.23
2022-11-21T08:42:06.799Z,13.43
2022-11-21T08:44:36.070Z,15.93
2022-11-21T08:47:05.170Z,12.83
2022-11-21T08:49:35.936Z,7.67
2022-11-21T08:52:04.605Z,8.40
2022-11-21T08:54:33.346Z,8.37
2022-11-21T08:57:01.817Z,15.00
2022-11-21T08:59:30.278Z,7.77
2022-11-21T09:01:59.025Z,7.90
2022-11-21T09:04:27.881Z,5.63
2022-11-21T09:06:57.905Z,10.53
2022-11-21T09:09:26.359Z,10.20
2022-11-21T09:11:54.843Z,7.40
2022-11-21T09:14:55.657Z,10.73
2022-11-21T09:17:41.629Z,7.90
2022-11-21T09:20:11.127Z,5.23
2022-11-21T09:22:41.169Z,8.17
2022-11-21T09:25:10.311Z,5.10
2022-11-21T09:27:38.801Z,6.07
2022-11-21T09:30:08.309Z,6.90
2022-11-21T09:32:37.093Z,7.33
2022-11-21T09:35:06.445Z,7.67
2022-11-21T09:37:38.377Z,6.20
2022-11-21T09:40:10.932Z,8.93
2022-11-21T09:42:57.861Z,5.57
2022-11-21T09:45:31.208Z,6.63
2022-11-21T09:47:59.742Z,7.30
2022-11-21T09:50:32.565Z,9.63
2022-11-21T09:53:07.051Z,12.27
2022-11-21T09:55:45.175Z,8.40
2022-11-21T09:58:24.559Z,12.23
2022-11-21T10:00:53.665Z,15.77
2022-11-21T10:03:25.276Z,24.73
2022-11-21T10:05:57.214Z,20.03
2022-11-21T10:08:35.247Z,21.93
2022-11-21T10:11:20.129Z,16.37
2022-11-21T10:14:05.657Z,15.17
2022-11-21T10:16:44.094Z,22.50
2022-11-21T10:19:33.764Z,20.43
2022-11-21T10:22:25.958Z,18.10
2022-11-21T10:24:58.002Z,18.73
2022-11-21T10:27:34.538Z,16.30
2022-11-21T10:30:06.106Z,20.27
2022-11-21T10:32:39.417Z,21.00
2022-11-21T10:40:17.119Z,24.30
2022-11-21T10:42:54.599Z,20.93
2022-11-21T10:45:23.048Z,23.70
2022-11-21T10:47:53.107Z,23.73
2022-11-21T10:50:33.702Z,22.70
2022-11-21T10:53:25.850Z,21.53
2022-11-21T10:56:03.518Z,24.37
2022-11-21T10:58:44.386Z,21.50
2022-11-21T11:01:25.019Z,32.80
2022-11-21T11:04:27.896Z,25.43
2022-11-21T11:06:57.531Z,25.13
2022-11-21T11:09:30.699Z,28.50
2022-11-21T11:12:23.907Z,25.40
2022-11-21T11:14:56.116Z,28.10
2022-11-21T11:17:32.341Z,26.07
2022-11-21T11:20:03.017Z,31.17
2022-11-21T11:22:31.997Z,36.53
2022-11-21T11:25:01.119Z,31.23
2022-11-21T11:27:30.794Z,37.80
2022-11-21T11:30:08.275Z,30.13
2022-11-21T11:32:41.861Z,33.40
2022-11-21T11:35:22.912Z,31.93
2022-11-21T11:38:01.777Z,29.20
2022-11-21T11:40:34.267Z,29.60
2022-11-21T11:43:34.991Z,28.57
2022-11-21T11:46:38.071Z,31.00
2022-11-21T11:49:20.374Z,30.40
2022-11-21T11:51:55.194Z,32.03
2022-11-21T11:54:28.385Z,28.67
2022-11-21T11:56:58.622Z,32.00
2022-11-21T11:59:32.430Z,27.20
2022-11-21T12:02:11.640Z,30.70
2022-11-21T12:04:47.105Z,27.53
2022-11-21T12:10:17.565Z,25.27
2022-11-21T12:12:51.374Z,27.53
2022-11-21T12:15:41.650Z,27.10
2022-11-21T12:18:21.418Z,27.00
2022-11-21T12:20:57.400Z,20.27
2022-11-21T12:23:29.536Z,22.80
2022-11-21T12:26:19.435Z,25.70
2022-11-21T12:28:59.750Z,21.67
2022-11-21T12:31:38.176Z,24.60
2022-11-21T12:34:22.151Z,26.23
2022-11-21T12:36:58.334Z,23.13
2022-11-21T12:39:48.032Z,25.77
2022-11-21T12:42:39.057Z,25.70
2022-11-21T12:45:29.018Z,27.20
2022-11-21T12:48:36.105Z,26.20
2022-11-21T12:52:04.610Z,24.20
2022-11-21T12:55:07.411Z,22.70
2022-11-21T12:57:48.003Z,25.93
2022-11-21T13:00:23.631Z,25.63
2022-11-21T13:03:11.400Z,23.10
2022-11-21T13:05:47.040Z,22.37
2022-11-21T13:08:24.683Z,21.40
2022-11-21T13:11:16.524Z,22.80
2022-11-21T13:13:48.512Z,23.53
2022-11-21T13:16:36.917Z,22.63
2022-11-21T13:19:18.710Z,21.77
2022-11-21T13:21:48.958Z,22.20
2022-11-21T13:24:50.502Z,26.83
2022-11-21T13:27:37.923Z,21.77
2022-11-21T13:30:21.968Z,28.67
2022-11-21T13:32:52.626Z,33.13
2022-11-21T13:36:06.589Z,28.07
2022-11-21T13:39:34.749Z,26.10
2022-11-21T13:42:24.188Z,24.73
2022-11-21T13:44:52.834Z,25.00
2022-11-21T13:47:56.465Z,36.13
2022-11-21T13:51:08.456Z,25.80
2022-11-21T13:54:00.236Z,24.50
2022-11-21T13:56:37.205Z,27.40
2022-11-21T13:59:32.278Z,22.20
2022-11-21T14:02:23.464Z,23.27
2022-11-21T14:05:20.907Z,29.43
2022-11-21T14:07:49.441Z,25.37
2022-11-21T14:10:33.687Z,20.60
2022-11-21T14:13:04.354Z,22.00
2022-11-21T14:15:43.578Z,29.17
2022-11-21T14:18:22.226Z,28.30
2022-11-21T14:20:53.971Z,33.07
2022-11-21T14:23:28.344Z,30.57
2022-11-21T14:26:01.027Z,29.20
2022-11-21T14:28:31.782Z,31.40
2022-11-21T14:31:03.056Z,26.67
2022-11-21T14:33:33.267Z,30.10
2022-11-21T14:36:07.426Z,27.07
2022-11-21T14:38:42.634Z,26.60
2022-11-21T14:41:32.766Z,29.83
2022-11-21T14:44:21.387Z,30.10
2022-11-21T14:46:52.142Z,34.73
2022-11-21T14:49:26.541Z,33.40
2022-11-21T14:52:02.286Z,27.00
2022-11-21T14:54:34.541Z,26.47
2022-11-21T14:57:07.502Z,27.00
2022-11-21T14:59:40.186Z,29.50
2022-11-21T15:02:15.592Z,31.67
2022-11-21T15:04:45.145Z,29.17
2022-11-21T15:07:25.635Z,39.47
2022-11-21T15:12:54.062Z,25.67
2022-11-21T15:15:34.176Z,42.53
2022-11-21T15:20:59.004Z,32.10
2022-11-21T15:23:30.358Z,32.03
2022-11-21T15:26:01.430Z,35.20
2022-11-21T15:28:31.696Z,31.23
2022-11-21T15:31:18.738Z,37.87
2022-11-21T15:37:04.767Z,36.20
2022-11-21T15:39:34.664Z,31.43
2022-11-21T15:42:38.381Z,29.37
2022-11-21T15:45:25.469Z,31.90
2022-11-21T15:47:55.560Z,34.90
2022-11-21T15:50:26.483Z,37.57
2022-11-21T15:52:57.888Z,35.77
2022-11-21T15:55:31.545Z,34.33
2022-11-21T15:57:59.952Z,39.30
2022-11-21T16:00:28.446Z,41.70
2022-11-21T16:02:56.931Z,55.63
2022-11-21T16:05:28.694Z,42.37
2022-11-21T16:07:57.050Z,49.50
2022-11-21T16:10:28.039Z,48.80
2022-11-21T16:12:57.698Z,46.47
2022-11-21T16:15:26.087Z,52.87
2022-11-21T16:17:54.895Z,61.87
2022-11-21T16:20:23.520Z,60.80
2022-11-21T16:22:53.324Z,63.80
2022-11-21T16:25:24.950Z,70.53
2022-11-21T16:27:53.464Z,68.33
2022-11-21T16:30:23.959Z,70.97
2022-11-21T16:32:55.527Z,57.27
2022-11-21T16:35:26.023Z,63.00
2022-11-21T16:37:55.984Z,64.20
2022-11-21T16:40:24.610Z,70.67
2022-11-21T16:42:52.944Z,66.67
2022-11-21T16:45:21.516Z,64.90
2022-11-21T16:47:49.902Z,70.30
2022-11-21T16:50:19.021Z,71.13
2022-11-21T16:52:50.160Z,65.00
2022-11-21T16:55:20.153Z,60.10
2022-11-21T16:57:49.515Z,56.70
2022-11-21T17:00:19.434Z,58.83
2022-11-21T17:02:47.866Z,75.57
2022-11-21T17:05:16.292Z,60.73
2022-11-21T17:07:47.810Z,61.83
2022-11-21T17:10:16.923Z,70.40
2022-11-21T17:12:47.158Z,72.90
2022-11-21T17:15:16.663Z,71.93
2022-11-21T17:17:45.144Z,72.77
2022-11-21T17:20:16.251Z,71.40
2022-11-21T17:22:44.669Z,68.33
2022-11-21T17:25:14.411Z,78.13
2022-11-21T17:27:42.847Z,81.97
2022-11-21T17:30:14.377Z,68.60
2022-11-21T17:32:42.754Z,64.40
2022-11-21T17:35:11.410Z,73.73
2022-11-21T17:37:39.785Z,68.37
2022-11-21T17:40:13.331Z,66.10
2022-11-21T17:42:43.327Z,76.80
2022-11-21T17:45:15.286Z,77.33
2022-11-21T17:47:44.129Z,80.40
2022-11-21T17:50:12.607Z,79.73
2022-11-21T17:52:41.121Z,72.27
2022-11-21T17:55:09.531Z,79.83
2022-11-21T17:57:38.019Z,83.10
2022-11-21T18:00:07.501Z,74.70
2022-11-21T18:02:38.117Z,77.97
2022-11-21T18:05:07.142Z,75.47
2022-11-21T18:07:35.744Z,83.07
2022-11-21T18:10:27.505Z,92.33
2022-11-21T18:12:52.575Z,95.97
2022-11-21T18:15:20.920Z,78.87
2022-11-21T18:17:50.865Z,76.70
2022-11-21T18:20:19.538Z,84.87
2022-11-21T18:22:49.097Z,90.57
2022-11-21T18:25:17.611Z,93.70
2022-11-21T18:27:51.826Z,90.70
2022-11-21T18:30:22.824Z,87.63
2022-11-21T18:32:55.463Z,89.53
2022-11-21T18:35:23.992Z,91.40
2022-11-21T18:37:55.950Z,99.17
2022-11-21T18:40:24.740Z,82.20
2022-11-21T18:42:53.834Z,85.73
2022-11-21T18:45:22.420Z,65.80
2022-11-21T18:47:52.976Z,64.70
2022-11-21T18:50:21.628Z,64.73
2022-11-21T18:52:50.377Z,57.87
2022-11-21T18:55:19.094Z,56.43
2022-11-21T18:57:47.645Z,63.27
2022-11-21T19:00:16.844Z,60.27
2022-11-21T19:02:45.472Z,59.87
2022-11-21T19:05:20.368Z,71.87
2022-11-21T19:07:50.420Z,229.43
2022-11-21T19:10:44.007Z,87.23
2022-11-21T19:13:07.815Z,75.20
2022-11-21T19:15:38.459Z,78.47
2022-11-21T19:18:10.272Z,98.30
2022-11-21T19:20:41.610Z,78.70
2022-11-21T19:23:10.291Z,89.27
2022-11-21T19:25:38.787Z,89.37
2022-11-21T19:28:07.519Z,94.00
2022-11-21T19:30:36.662Z,89.43
2022-11-21T19:33:05.365Z,117.97
2022-11-21T19:35:34.097Z,109.93
2022-11-21T19:38:03.982Z,120.63
2022-11-21T19:40:52.411Z,117.63
2022-11-21T19:43:23.121Z,126.77
2022-11-21T19:45:57.713Z,121.23
2022-11-21T19:48:26.267Z,116.33
2022-11-21T19:50:58.608Z,106.87
2022-11-21T19:53:30.236Z,107.77
2022-11-21T19:56:00.209Z,114.23
2022-11-21T19:58:28.615Z,117.70
2022-11-21T20:01:06.706Z,116.73
2022-11-21T20:03:38.803Z,114.20
2022-11-21T20:06:08.681Z,131.07
2022-11-21T20:08:40.462Z,119.37
2022-11-21T20:11:14.516Z,121.13
2022-11-21T20:13:45.167Z,120.10
2022-11-21T20:16:22.558Z,113.60
2022-11-21T20:18:52.002Z,110.03
2022-11-21T20:21:21.131Z,110.73
2022-11-21T20:23:51.259Z,106.67
2022-11-21T20:26:21.838Z,94.33
2022-11-21T20:28:50.884Z,100.57
2022-11-21T20:31:21.143Z,81.77
2022-11-21T20:33:53.107Z,95.97
2022-11-21T20:36:23.443Z,93.33
2022-11-21T20:38:57.971Z,96.40
2022-11-21T20:41:29.415Z,106.90
2022-11-21T20:46:48.191Z,105.60
2022-11-21T20:49:19.000Z,114.13
2022-11-21T20:53:31.296Z,117.60
2022-11-21T20:54:37.993Z,119.97
2022-11-21T20:57:14.885Z,117.70
2022-11-21T20:59:44.066Z,117.87
2022-11-21T21:02:14.806Z,117.63
2022-11-21T21:04:44.520Z,127.37
2022-11-21T21:07:13.179Z,122.90
2022-11-21T21:09:43.819Z,120.43
2022-11-21T21:12:12.454Z,116.60
2022-11-21T21:14:41.031Z,124.27
2022-11-21T21:17:09.607Z,119.30
2022-11-21T21:19:38.035Z,116.53
2022-11-21T21:22:09.112Z,116.00
2022-11-21T21:24:37.935Z,114.47
2022-11-21T21:27:08.023Z,120.83
2022-11-21T21:29:37.142Z,119.97
2022-11-21T21:32:06.142Z,118.73
2022-11-21T21:34:34.528Z,114.97
2022-11-21T21:37:03.016Z,118.23
2022-11-21T21:39:31.712Z,118.90
2022-11-21T21:42:00.193Z,118.10
2022-11-21T21:44:33.542Z,116.00
2022-11-21T21:47:02.389Z,112.07
2022-11-21T21:49:31.118Z,115.37
2022-11-21T21:51:59.605Z,107.87
2022-11-21T21:54:28.260Z,114.57
2022-11-21T21:56:57.112Z,112.60
2022-11-21T21:59:25.831Z,121.33
2022-11-21T22:01:55.871Z,122.07
2022-11-21T22:04:24.610Z,118.43
2022-11-21T22:06:53.192Z,123.10
2022-11-21T22:09:22.599Z,117.90
2022-11-21T22:11:51.133Z,108.03
2022-11-21T22:14:19.875Z,104.67
2022-11-21T22:16:48.495Z,100.13
2022-11-21T22:19:18.545Z,94.80
2022-11-21T22:21:49.758Z,95.73
2022-11-21T22:24:25.855Z,100.33
2022-11-21T22:26:54.893Z,91.87
2022-11-21T22:29:25.202Z,89.77
2022-11-21T22:31:54.224Z,82.50
2022-11-21T22:34:25.258Z,81.77
2022-11-21T22:36:56.478Z,93.63
2022-11-21T22:39:27.385Z,78.77
2022-11-21T22:41:59.822Z,82.27
2022-11-21T22:44:29.090Z,80.30
2022-11-21T22:46:57.795Z,92.13
2022-11-21T22:49:27.699Z,74.90
2022-11-21T22:51:56.254Z,81.00
2022-11-21T22:54:27.623Z,79.93
2022-11-21T22:56:56.142Z,84.50
2022-11-21T22:59:24.767Z,83.50
2022-11-21T23:01:53.286Z,94.00
2022-11-21T23:04:22.050Z,85.60
2022-11-21T23:06:51.870Z,79.57
2022-11-21T23:09:20.478Z,79.27
2022-11-21T23:11:49.430Z,77.37
2022-11-21T23:14:17.964Z,81.83
2022-11-21T23:16:46.320Z,73.83
2022-11-21T23:19:14.720Z,77.60
2022-11-21T23:21:46.094Z,71.97
2022-11-21T23:24:15.934Z,74.77
2022-11-21T23:26:44.406Z,77.30
2022-11-21T23:29:12.725Z,71.50
2022-11-21T23:31:42.985Z,73.33
2022-11-21T23:34:11.592Z,75.30
2022-11-21T23:36:40.335Z,69.50
2022-11-21T23:39:09.255Z,69.17
2022-11-21T23:41:39.095Z,70.43
2022-11-21T23:44:07.527Z,75.47
2022-11-21T23:46:36.070Z,76.10
2022-11-21T23:49:07.505Z,72.50
2022-11-21T23:51:35.891Z,74.37
2022-11-21T23:54:04.398Z,83.93
2022-11-21T23:56:32.764Z,80.57
2022-11-21T23:59:02.424Z,68.80
